Time;durP1;ratioP1;P1;durP2;ratioP2;P2;SDS_P1;SDS_P2;PMS_P1;PMS_P2;Temp;Humidity;BMP_temperature;BMP_pressure;BME280_temperature;BME280_humidity;BME280_pressure;Samples;Min_cycle;Max_cycle;Signal;HPM_P1;HPM_P2
2022/10/05 00:01:27;;;;;;;9.68;4.60;;;18.70;96.70;;;;;;5084118;28;20068;-73
2022/10/05 00:04:01;;;;;;;9.30;4.80;;;18.70;96.70;;;;;;5078319;28;20076;-73
2022/10/05 00:06:29;;;;;;;8.45;3.80;;;18.70;96.70;;;;;;5101486;28;20047;-73
2022/10/05 00:09:00;;;;;;;10.23;4.40;;;18.60;96.70;;;;;;5073196;28;20049;-73
2022/10/05 00:11:30;;;;;;;7.13;3.60;;;18.60;96.70;;;;;;5082943;28;20866;-73
2022/10/05 00:13:59;;;;;;;7.47;3.33;;;18.60;96.70;;;;;;5085876;28;20102;-73
2022/10/05 00:16:28;;;;;;;7.45;3.10;;;18.60;96.70;;;;;;5086138;28;20056;-73
2022/10/05 00:18:58;;;;;;;5.43;2.83;;;18.60;96.70;;;;;;5083527;28;20042;-73
2022/10/05 00:21:32;;;;;;;5.70;2.85;;;18.50;96.70;;;;;;5086160;28;20062;-72
2022/10/05 00:24:01;;;;;;;5.75;3.40;;;18.50;96.70;;;;;;5082654;28;20051;-73
2022/10/05 00:26:32;;;;;;;6.82;2.50;;;18.50;96.70;;;;;;5086439;28;20043;-73
2022/10/05 00:29:01;;;;;;;7.22;3.17;;;18.50;96.70;;;;;;5083636;28;20119;-73
2022/10/05 00:31:31;;;;;;;3.97;2.75;;;18.50;96.70;;;;;;5096984;28;20036;-71
2022/10/05 00:34:00;;;;;;;8.35;2.88;;;18.50;96.70;;;;;;5082460;28;20305;-71
2022/10/05 00:36:28;;;;;;;4.85;2.40;;;18.50;96.70;;;;;;5084939;28;20570;-71
2022/10/05 00:38:56;;;;;;;5.57;2.80;;;18.50;96.70;;;;;;5083940;28;20052;-71
2022/10/05 00:41:35;;;;;;;5.35;2.60;;;18.50;96.70;;;;;;5081514;28;20072;-71
2022/10/05 00:44:31;;;;;;;5.70;2.53;;;18.50;96.70;;;;;;5096951;28;20402;-71
2022/10/05 00:47:13;;;;;;;6.85;2.42;;;18.50;96.70;;;;;;5081172;28;20126;-71
2022/10/05 00:49:57;;;;;;;2.50;2.22;;;18.40;96.70;;;;;;5083237;28;20068;-71
2022/10/05 00:52:35;;;;;;;6.68;2.00;;;18.40;96.70;;;;;;5111305;27;20047;-71
2022/10/05 00:55:11;;;;;;;4.25;2.05;;;18.40;96.70;;;;;;5080182;28;20055;-71
2022/10/05 00:57:54;;;;;;;5.88;2.13;;;18.20;96.70;;;;;;5083594;28;20135;-71
2022/10/05 01:00:25;;;;;;;5.05;2.00;;;18.20;96.70;;;;;;5084504;28;20274;-72
2022/10/05 01:02:59;;;;;;;6.57;2.10;;;18.20;96.70;;;;;;5083407;28;20488;-71
2022/10/05 01:05:43;;;;;;;4.95;2.25;;;18.30;96.70;;;;;;5079735;28;20068;-71
2022/10/05 01:08:20;;;;;;;4.97;2.20;;;18.30;96.70;;;;;;5082181;28;20068;-71
2022/10/05 01:10:59;;;;;;;6.20;2.60;;;18.20;96.70;;;;;;5084499;28;20494;-72
2022/10/05 01:13:38;;;;;;;3.92;1.67;;;18.20;96.70;;;;;;5080373;28;20048;-71
2022/10/05 01:16:12;;;;;;;6.90;2.78;;;18.20;96.70;;;;;;5081861;28;20061;-71
2022/10/05 01:18:46;;;;;;;4.65;2.40;;;18.10;96.70;;;;;;5084524;28;20051;-71
2022/10/05 01:21:19;;;;;;;7.20;2.60;;;18.10;96.70;;;;;;5080643;28;20043;-72
2022/10/05 01:24:11;;;;;;;5.45;2.10;;;18.10;96.70;;;;;;5083048;28;20050;-72
2022/10/05 01:27:10;;;;;;;10.23;2.90;;;18.10;96.70;;;;;;5082896;28;20107;-71
2022/10/05 01:29:52;;;;;;;5.05;2.08;;;18.10;96.70;;;;;;5083331;28;20052;-71
2022/10/05 01:32:25;;;;;;;5.43;2.80;;;18.10;96.70;;;;;;5083634;28;20044;-71
2022/10/05 01:35:02;;;;;;;7.30;2.45;;;18.00;96.70;;;;;;5079873;28;20048;-71
2022/10/05 01:37:41;;;;;;;3.95;2.38;;;18.00;96.70;;;;;;5076783;28;20445;-74
2022/10/05 01:40:18;;;;;;;5.53;2.40;;;17.90;96.70;;;;;;5079027;28;20068;-73
2022/10/05 01:43:01;;;;;;;4.15;2.10;;;17.90;96.70;;;;;;5082370;28;20127;-73
2022/10/05 01:45:42;;;;;;;4.53;2.10;;;17.90;96.70;;;;;;5082081;28;20044;-74
2022/10/05 01:48:18;;;;;;;6.85;2.30;;;17.80;96.70;;;;;;5082063;28;20032;-74
2022/10/05 01:50:55;;;;;;;7.75;2.72;;;17.70;96.70;;;;;;5080148;28;20089;-71
2022/10/05 01:53:34;;;;;;;10.18;3.58;;;17.70;96.70;;;;;;5081889;28;20143;-71
2022/10/05 01:56:10;;;;;;;5.60;2.83;;;17.70;96.70;;;;;;5078976;28;20044;-71
2022/10/05 01:58:46;;;;;;;7.50;3.92;;;17.70;96.70;;;;;;5078839;28;20098;-71
2022/10/05 02:01:25;;;;;;;7.07;3.55;;;17.70;96.70;;;;;;5076071;28;20087;-71
2022/10/05 02:04:01;;;;;;;8.73;4.25;;;17.70;96.70;;;;;;5115353;27;20710;-71
2022/10/05 02:06:31;;;;;;;9.45;3.40;;;17.70;96.70;;;;;;5081747;28;20068;-71
2022/10/05 02:09:06;;;;;;;6.65;3.67;;;17.60;96.70;;;;;;5082745;28;20054;-71
2022/10/05 02:11:36;;;;;;;7.20;3.53;;;17.60;96.70;;;;;;5080847;28;20493;-71
2022/10/05 02:14:09;;;;;;;10.07;3.83;;;17.50;96.70;;;;;;5077356;28;20083;-72
2022/10/05 02:16:42;;;;;;;7.60;3.80;;;17.50;96.70;;;;;;5068245;28;20523;-72
2022/10/05 02:19:16;;;;;;;7.07;4.00;;;17.50;96.70;;;;;;5082220;28;20131;-71
2022/10/05 02:21:48;;;;;;;10.65;3.95;;;17.50;96.70;;;;;;5078601;28;20703;-72
2022/10/05 02:24:21;;;;;;;6.10;3.70;;;17.50;96.70;;;;;;5083323;28;20050;-72
2022/10/05 02:26:52;;;;;;;5.45;3.45;;;17.50;96.70;;;;;;5083158;28;20108;-72
2022/10/05 02:29:26;;;;;;;8.05;4.20;;;17.50;96.70;;;;;;5074418;28;20557;-72
2022/10/05 02:31:59;;;;;;;7.03;4.13;;;17.50;96.70;;;;;;5082206;28;20043;-72
2022/10/05 02:34:29;;;;;;;8.20;3.97;;;17.50;96.70;;;;;;5068984;28;20067;-72
2022/10/05 02:37:37;;;;;;;8.30;4.05;;;17.40;96.70;;;;;;5082547;28;20056;-72
2022/10/05 02:40:17;;;;;;;7.47;3.92;;;17.40;96.70;;;;;;5080399;28;20452;-71
2022/10/05 02:42:55;;;;;;;8.23;4.25;;;17.50;96.70;;;;;;5080020;28;20052;-71
2022/10/05 02:45:36;;;;;;;5.20;3.97;;;17.60;96.70;;;;;;5078363;28;20079;-71
2022/10/05 02:48:14;;;;;;;6.50;4.53;;;17.60;96.70;;;;;;5080786;28;20079;-72
2022/10/05 02:50:48;;;;;;;10.25;4.80;;;17.60;96.70;;;;;;5082450;28;20695;-72
2022/10/05 02:53:23;;;;;;;6.68;4.07;;;17.60;96.70;;;;;;5079519;28;20040;-72
2022/10/05 02:56:02;;;;;;;7.75;4.35;;;17.50;96.70;;;;;;5081274;28;20048;-72
2022/10/05 02:58:40;;;;;;;9.13;4.18;;;17.50;96.70;;;;;;5081820;28;20131;-72
2022/10/05 03:01:14;;;;;;;8.30;4.15;;;17.50;96.70;;;;;;5082210;28;20048;-72
2022/10/05 03:03:53;;;;;;;6.13;3.75;;;17.50;96.70;;;;;;5081100;28;20139;-72
2022/10/05 03:06:26;;;;;;;5.53;3.83;;;17.50;96.70;;;;;;5082882;28;20050;-72
2022/10/05 03:09:01;;;;;;;6.72;3.78;;;17.50;96.70;;;;;;5079870;28;20659;-72
2022/10/05 03:11:40;;;;;;;6.97;4.07;;;17.40;96.70;;;;;;5073196;28;20067;-72
2022/10/05 03:14:17;;;;;;;8.20;3.70;;;17.40;96.70;;;;;;5079920;28;20055;-72
2022/10/05 03:17:02;;;;;;;7.00;3.85;;;17.40;96.70;;;;;;5075574;28;20277;-72
2022/10/05 03:19:49;;;;;;;7.25;3.70;;;17.40;96.70;;;;;;5082937;28;20047;-72
2022/10/05 03:22:28;;;;;;;5.60;3.70;;;17.40;96.70;;;;;;5088701;28;20052;-72
2022/10/05 03:25:28;;;;;;;7.78;3.88;;;17.30;96.70;;;;;;5078377;28;20125;-72
2022/10/05 03:28:07;;;;;;;9.75;3.95;;;17.20;96.70;;;;;;5076635;28;20097;-72
2022/10/05 03:30:41;;;;;;;7.97;3.75;;;17.30;96.70;;;;;;5093272;28;20051;-72
2022/10/05 03:33:18;;;;;;;8.95;3.58;;;17.20;96.70;;;;;;5077218;28;20729;-72
2022/10/05 03:36:10;;;;;;;5.97;3.75;;;17.20;96.70;;;;;;5080588;28;20048;-72
2022/10/05 03:38:43;;;;;;;5.65;3.00;;;17.20;96.70;;;;;;5079009;28;20055;-72
2022/10/05 03:41:20;;;;;;;6.13;3.15;;;17.10;96.70;;;;;;5097916;28;20601;-72
2022/10/05 03:44:25;;;;;;;6.93;3.95;;;17.20;96.70;;;;;;5111181;28;20067;-72
2022/10/05 03:47:10;;;;;;;6.22;3.72;;;17.10;96.70;;;;;;5021851;28;20045;-72
2022/10/05 03:50:10;;;;;;;6.82;3.53;;;17.20;96.70;;;;;;5012789;28;20519;-72
2022/10/05 03:52:49;;;;;;;6.78;3.55;;;17.10;96.70;;;;;;5006182;28;20088;-72
2022/10/05 03:55:29;;;;;;;8.55;4.30;;;17.10;96.70;;;;;;5002643;28;20045;-72
2022/10/05 03:58:05;;;;;;;7.35;3.55;;;17.00;96.70;;;;;;5019994;28;20135;-72
2022/10/05 04:00:35;;;;;;;5.95;3.38;;;17.00;96.70;;;;;;5019216;28;20333;-72
2022/10/05 04:03:10;;;;;;;7.93;3.45;;;17.00;96.70;;;;;;5038515;28;20055;-72
2022/10/05 04:05:44;;;;;;;6.20;3.65;;;16.90;96.70;;;;;;5026175;28;20060;-72
2022/10/05 04:08:22;;;;;;;5.80;3.47;;;16.80;96.70;;;;;;5042343;28;20151;-72
2022/10/05 04:10:53;;;;;;;7.68;4.45;;;16.80;96.70;;;;;;5007528;28;20048;-73
2022/10/05 04:13:30;;;;;;;10.63;4.15;;;16.80;96.70;;;;;;5041956;28;20493;-72
2022/10/05 04:16:05;;;;;;;7.03;4.10;;;16.80;96.70;;;;;;5021396;28;20144;-72
2022/10/05 04:18:37;;;;;;;6.35;3.88;;;16.80;96.70;;;;;;5026117;28;20044;-72
2022/10/05 04:21:10;;;;;;;5.78;3.65;;;16.80;96.70;;;;;;5065875;28;20143;-72
2022/10/05 04:23:48;;;;;;;8.57;3.97;;;16.70;96.70;;;;;;5086364;28;20438;-72
2022/10/05 04:26:18;;;;;;;;;;;16.70;96.70;;;;;;5081259;28;20044;-72
2022/10/05 04:28:53;;;;;;;6.63;3.65;;;16.70;96.70;;;;;;5083884;28;20011;-72
2022/10/05 04:31:39;;;;;;;9.38;4.03;;;16.70;96.70;;;;;;5083910;28;20036;-72
2022/10/05 04:34:23;;;;;;;6.95;4.25;;;16.70;96.70;;;;;;5085151;28;20139;-72
2022/10/05 04:36:58;;;;;;;7.53;3.88;;;16.80;96.70;;;;;;5060656;28;20050;-72
2022/10/05 04:39:40;;;;;;;8.07;4.28;;;16.70;96.70;;;;;;5083356;28;20055;-72
2022/10/05 04:42:20;;;;;;;8.35;4.60;;;16.50;96.70;;;;;;5083383;28;20074;-72
2022/10/05 04:45:03;;;;;;;6.80;3.65;;;16.50;96.70;;;;;;5077192;28;20399;-72
2022/10/05 04:48:02;;;;;;;6.13;3.88;;;16.50;96.70;;;;;;5080951;28;20090;-72
2022/10/05 04:50:48;;;;;;;7.32;4.82;;;16.50;96.70;;;;;;5083660;28;20052;-72
2022/10/05 04:53:23;;;;;;;;;;;16.50;96.70;;;;;;5080858;28;20044;-72
2022/10/05 04:56:01;;;;;;;5.82;4.10;;;16.50;96.70;;;;;;5083651;28;19923;-72
2022/10/05 04:58:44;;;;;;;6.80;3.72;;;16.50;96.70;;;;;;5081176;28;20451;-72
2022/10/05 05:01:33;;;;;;;8.50;4.13;;;16.50;96.70;;;;;;5084489;28;20246;-72
2022/10/05 05:04:27;;;;;;;5.30;3.65;;;16.60;96.70;;;;;;5092003;28;20052;-72
2022/10/05 05:07:04;;;;;;;6.55;3.40;;;16.60;96.70;;;;;;5115109;27;20490;-71
2022/10/05 05:09:55;;;;;;;5.60;3.42;;;16.50;96.70;;;;;;5080217;28;20044;-71
2022/10/05 05:12:35;;;;;;;6.97;3.05;;;16.40;96.70;;;;;;5063736;28;20048;-72
2022/10/05 05:15:21;;;;;;;6.38;3.00;;;16.30;96.70;;;;;;5083663;28;20056;-73
2022/10/05 05:18:14;;;;;;;6.43;3.58;;;16.30;96.70;;;;;;5077145;28;20044;-72
2022/10/05 05:20:53;;;;;;;6.03;3.15;;;16.30;96.70;;;;;;5080131;28;20044;-73
2022/10/05 05:23:26;;;;;;;5.85;3.28;;;16.40;96.70;;;;;;5084898;28;20155;-73
2022/10/05 05:26:02;;;;;;;5.30;2.80;;;16.40;96.70;;;;;;5083826;28;20643;-73
2022/10/05 05:28:41;;;;;;;5.45;3.15;;;16.30;96.70;;;;;;5083905;28;20514;-73
2022/10/05 05:31:15;;;;;;;4.63;3.42;;;16.30;96.70;;;;;;5072245;28;20044;-72
2022/10/05 05:33:54;;;;;;;3.75;3.08;;;16.30;96.70;;;;;;5080267;28;20048;-74
2022/10/05 05:36:34;;;;;;;5.18;3.47;;;16.30;96.70;;;;;;5082663;28;20433;-72
2022/10/05 05:39:22;;;;;;;7.40;3.10;;;16.30;96.70;;;;;;5082759;28;20074;-73
2022/10/05 05:41:59;;;;;;;6.10;3.22;;;16.30;96.70;;;;;;5079631;28;20040;-73
2022/10/05 05:44:35;;;;;;;4.63;2.90;;;16.30;96.70;;;;;;5083837;28;20052;-73
2022/10/05 05:47:17;;;;;;;4.90;3.13;;;16.30;96.70;;;;;;5081047;28;20593;-73
2022/10/05 05:49:59;;;;;;;7.57;3.20;;;16.30;96.70;;;;;;5083676;28;20051;-73
2022/10/05 05:52:40;;;;;;;4.85;2.70;;;16.40;96.70;;;;;;5066595;28;20921;-73
2022/10/05 05:55:17;;;;;;;6.13;3.00;;;16.40;96.70;;;;;;5082321;28;20059;-75
2022/10/05 05:57:51;;;;;;;4.95;3.00;;;16.50;96.70;;;;;;5084772;28;20116;-73
2022/10/05 06:00:23;;;;;;;6.60;3.03;;;16.40;96.70;;;;;;5082080;28;20526;-73
2022/10/05 06:03:03;;;;;;;7.40;3.58;;;16.40;96.70;;;;;;5083333;28;20509;-73
2022/10/05 06:05:37;;;;;;;6.10;2.90;;;16.40;96.70;;;;;;5059836;28;20082;-73
2022/10/05 06:08:15;;;;;;;5.13;2.92;;;16.40;96.70;;;;;;5095495;28;20048;-73
2022/10/05 06:10:51;;;;;;;5.70;3.17;;;16.50;96.70;;;;;;5083912;28;20062;-73
2022/10/05 06:13:23;;;;;;;5.43;3.15;;;16.50;96.70;;;;;;5097784;28;20106;-73
2022/10/05 06:15:57;;;;;;;5.55;3.45;;;16.60;96.70;;;;;;5064755;28;20101;-73
2022/10/05 06:18:25;;;;;;;5.38;3.65;;;16.60;96.70;;;;;;5064823;28;20044;-73
2022/10/05 06:20:59;;;;;;;6.65;3.58;;;16.70;96.70;;;;;;5099063;28;20127;-75
2022/10/05 06:23:34;;;;;;;5.68;3.33;;;16.70;96.70;;;;;;5083448;28;20050;-74
2022/10/05 06:26:29;;;;;;;4.25;3.55;;;16.70;96.70;;;;;;5081500;28;20048;-73
2022/10/05 06:29:02;;;;;;;6.55;3.58;;;16.70;96.70;;;;;;5069262;28;20040;-74
2022/10/05 06:31:52;;;;;;;5.82;3.13;;;16.80;96.70;;;;;;5081837;28;20166;-73
2022/10/05 06:34:59;;;;;;;6.07;3.72;;;16.80;96.70;;;;;;5079151;28;20427;-74
2022/10/05 06:37:55;;;;;;;7.70;3.70;;;16.80;96.70;;;;;;5065940;28;20052;-74
2022/10/05 06:40:39;;;;;;;8.50;3.90;;;16.80;96.70;;;;;;5077329;28;20047;-73
2022/10/05 06:43:20;;;;;;;6.95;3.58;;;16.80;96.70;;;;;;5081977;28;20039;-73
2022/10/05 06:46:23;;;;;;;7.50;3.20;;;17.00;96.70;;;;;;5059489;28;20052;-74
2022/10/05 06:49:18;;;;;;;5.65;3.60;;;17.00;96.70;;;;;;5080310;28;20048;-74
2022/10/05 06:52:17;;;;;;;7.97;3.85;;;16.90;96.70;;;;;;5081137;28;20044;-74
2022/10/05 06:54:55;;;;;;;7.45;3.97;;;17.00;96.70;;;;;;5079227;28;20121;-74
2022/10/05 06:57:42;;;;;;;8.40;4.03;;;17.10;96.70;;;;;;5078396;28;20056;-73
2022/10/05 07:00:18;;;;;;;6.25;3.72;;;17.30;96.70;;;;;;5095334;28;20047;-74
2022/10/05 07:02:55;;;;;;;7.57;4.45;;;17.20;96.70;;;;;;5080668;28;20040;-74
2022/10/05 07:05:45;;;;;;;4.90;3.67;;;17.30;96.70;;;;;;5082526;28;20080;-74
2022/10/05 07:08:22;;;;;;;6.40;4.28;;;17.40;96.70;;;;;;5077827;28;20092;-74
2022/10/05 07:11:03;;;;;;;5.65;4.13;;;17.50;96.70;;;;;;5079377;28;20048;-74
2022/10/05 07:13:54;;;;;;;5.97;4.13;;;17.60;96.70;;;;;;5080037;28;20056;-74
2022/10/05 07:16:33;;;;;;;7.15;3.80;;;17.70;96.70;;;;;;5077951;28;20548;-74
2022/10/05 07:19:28;;;;;;;6.53;4.47;;;17.80;96.70;;;;;;5099070;28;20040;-74
2022/10/05 07:22:35;;;;;;;6.35;4.18;;;17.80;96.70;;;;;;5078270;28;20043;-74
2022/10/05 07:25:08;;;;;;;;;;;17.90;96.70;;;;;;5068238;28;20549;-74
2022/10/05 07:27:43;;;;;;;6.63;4.15;;;17.90;96.70;;;;;;5105619;27;19924;-74
2022/10/05 07:30:19;;;;;;;8.40;5.00;;;18.00;96.70;;;;;;5084626;28;20055;-74
2022/10/05 07:32:58;;;;;;;10.68;5.68;;;18.10;96.70;;;;;;5083888;28;20148;-73
2022/10/05 07:38:31;;;;;;;9.02;6.53;;;18.10;96.70;;;;;;5085367;28;20112;-73
2022/10/05 07:41:05;;;;;;;9.95;6.07;;;18.20;96.70;;;;;;5084914;28;20417;-73
2022/10/05 07:43:40;;;;;;;7.88;7.07;;;18.20;96.70;;;;;;5086780;28;20051;-73
2022/10/05 07:46:42;;;;;;;8.65;7.50;;;18.30;96.70;;;;;;5078753;28;20121;-73
2022/10/05 07:49:20;;;;;;;11.18;7.18;;;18.40;96.70;;;;;;5085848;28;20421;-74
2022/10/05 07:51:53;;;;;;;12.55;8.00;;;18.50;96.70;;;;;;5084657;28;20508;-74
2022/10/05 07:54:27;;;;;;;12.27;8.35;;;18.50;96.70;;;;;;5097078;28;20056;-74
2022/10/05 07:57:02;;;;;;;10.95;7.55;;;18.50;96.70;;;;;;5084206;28;20505;-74
2022/10/05 07:59:37;;;;;;;11.82;8.18;;;18.60;96.70;;;;;;5084875;28;20054;-74
2022/10/05 08:02:22;;;;;;;13.43;8.57;;;18.60;96.70;;;;;;5082216;28;20053;-74
2022/10/05 08:04:56;;;;;;;11.25;7.72;;;18.70;96.70;;;;;;5085529;28;20044;-74
2022/10/05 08:07:34;;;;;;;12.30;7.63;;;18.70;96.70;;;;;;5082899;28;20528;-74
2022/10/05 08:10:19;;;;;;;11.30;7.63;;;18.80;96.70;;;;;;5083908;28;20059;-74
2022/10/05 08:13:01;;;;;;;10.95;7.32;;;18.90;96.70;;;;;;5081133;28;20044;-74
2022/10/05 08:15:34;;;;;;;8.57;6.78;;;19.00;96.70;;;;;;5085555;28;20147;-74
2022/10/05 08:18:08;;;;;;;12.20;6.72;;;19.10;96.70;;;;;;5086802;28;20217;-74
2022/10/05 08:20:43;;;;;;;13.00;7.20;;;19.20;96.70;;;;;;5081587;28;20085;-74
2022/10/05 08:23:25;;;;;;;11.27;7.35;;;19.20;96.70;;;;;;5085580;28;20044;-74
2022/10/05 08:26:14;;;;;;;11.75;7.35;;;19.30;96.70;;;;;;5085245;28;20044;-73
2022/10/05 08:28:49;;;;;;;13.90;7.90;;;19.40;96.70;;;;;;5081168;28;20059;-74
2022/10/05 08:31:21;;;;;;;10.02;7.22;;;19.40;96.70;;;;;;5085910;28;20489;-74
2022/10/05 08:34:07;;;;;;;13.63;7.30;;;19.50;96.70;;;;;;5082802;28;20097;-74
2022/10/05 08:36:52;;;;;;;11.00;8.00;;;19.60;96.70;;;;;;5064242;28;20549;-74
2022/10/05 08:39:24;;;;;;;12.38;8.45;;;19.70;96.70;;;;;;5082892;28;20047;-74
2022/10/05 08:42:23;;;;;;;10.40;6.80;;;19.80;96.70;;;;;;5085663;28;20925;-74
2022/10/05 08:45:28;;;;;;;9.60;6.72;;;19.80;96.70;;;;;;5082192;28;20040;-74
2022/10/05 08:48:11;;;;;;;11.45;6.55;;;19.90;96.70;;;;;;5083060;28;20081;-74
2022/10/05 08:51:09;;;;;;;10.48;5.95;;;20.00;96.70;;;;;;5095649;28;20511;-74
2022/10/05 08:54:14;;;;;;;10.13;6.63;;;20.10;96.70;;;;;;5082297;28;20047;-74
2022/10/05 08:56:49;;;;;;;7.55;5.30;;;20.20;96.70;;;;;;5082787;28;20075;-74
2022/10/05 08:59:46;;;;;;;6.95;4.60;;;20.20;96.70;;;;;;5083274;28;20147;-74
2022/10/05 09:02:27;;;;;;;8.27;4.50;;;20.30;96.70;;;;;;5083568;28;20391;-74
2022/10/05 09:05:26;;;;;;;5.85;4.00;;;20.50;96.70;;;;;;5084854;28;20040;-74
2022/10/05 09:08:30;;;;;;;5.63;4.10;;;20.60;96.70;;;;;;5081490;28;20040;-74
2022/10/05 09:11:06;;;;;;;5.68;4.03;;;20.70;96.70;;;;;;5058134;28;20643;-74
2022/10/05 09:14:05;;;;;;;7.88;3.67;;;20.70;96.70;;;;;;5081615;28;20323;-74
2022/10/05 09:17:15;;;;;;;4.25;3.22;;;20.80;96.70;;;;;;5082904;28;20671;-74
2022/10/05 09:20:09;;;;;;;4.32;3.63;;;20.80;96.70;;;;;;5026300;28;20044;-74
2022/10/05 09:22:58;;;;;;;6.28;3.72;;;20.90;96.70;;;;;;5084279;28;20050;-74
2022/10/05 09:25:43;;;;;;;5.05;3.30;;;20.90;96.70;;;;;;5081953;28;20044;-74
2022/10/05 09:28:24;;;;;;;8.65;3.65;;;21.00;96.70;;;;;;5081860;28;20159;-74
2022/10/05 09:31:16;;;;;;;6.13;3.10;;;21.20;96.70;;;;;;5083528;28;20040;-74
2022/10/05 09:34:17;;;;;;;6.32;3.50;;;21.30;96.70;;;;;;5067031;28;20412;-74
2022/10/05 09:37:21;;;;;;;5.18;3.47;;;21.40;96.70;;;;;;5103346;27;20040;-74
2022/10/05 09:40:22;;;;;;;7.03;3.70;;;21.50;96.70;;;;;;5050048;28;20056;-74
2022/10/05 09:43:10;;;;;;;4.15;3.70;;;21.60;96.70;;;;;;5081357;28;20047;-74
2022/10/05 09:46:05;;;;;;;5.35;3.17;;;21.80;96.70;;;;;;5076705;28;20046;-74
2022/10/05 09:49:00;;;;;;;6.95;3.78;;;21.80;96.70;;;;;;5080763;28;20048;-74
2022/10/05 09:51:57;;;;;;;4.70;3.78;;;21.90;96.70;;;;;;5079729;28;20063;-74
2022/10/05 09:55:00;;;;;;;7.65;4.43;;;22.10;96.70;;;;;;5082268;28;20485;-74
2022/10/05 09:58:06;;;;;;;6.00;3.65;;;22.30;96.70;;;;;;5081879;28;20048;-74
2022/10/05 10:00:45;;;;;;;6.50;3.85;;;22.40;96.70;;;;;;5078682;28;20036;-74
2022/10/05 10:04:15;;;;;;;6.75;3.80;;;22.40;96.70;;;;;;5084695;28;20047;-74
2022/10/05 10:07:20;;;;;;;6.00;3.50;;;22.50;96.70;;;;;;5082727;28;20519;-74
2022/10/05 10:10:17;;;;;;;5.30;2.97;;;22.70;96.70;;;;;;5080238;28;20134;-74
2022/10/05 10:13:03;;;;;;;5.70;3.25;;;22.90;96.70;;;;;;5082089;28;20521;-74
2022/10/05 10:16:02;;;;;;;5.53;3.17;;;22.90;96.70;;;;;;5079752;28;20076;-74
2022/10/05 10:18:54;;;;;;;5.88;3.70;;;22.80;96.70;;;;;;5084644;28;20059;-74
2022/10/05 10:21:59;;;;;;;4.95;3.38;;;22.90;96.70;;;;;;5082120;28;20044;-75
2022/10/05 10:24:50;;;;;;;5.05;3.40;;;23.00;96.70;;;;;;5065144;28;20050;-74
2022/10/05 10:27:41;;;;;;;4.50;3.10;;;23.00;96.70;;;;;;5082841;28;20048;-74
2022/10/05 10:30:58;;;;;;;4.05;3.17;;;23.10;96.70;;;;;;5093643;28;20056;-74
2022/10/05 10:33:54;;;;;;;5.20;3.00;;;23.30;96.70;;;;;;5005116;28;20140;-74
2022/10/05 10:36:38;;;;;;;5.20;2.70;;;23.20;96.70;;;;;;4988489;28;20069;-74
2022/10/05 10:39:13;;;;;;;5.28;2.60;;;23.20;96.70;;;;;;5069753;28;20056;-74
2022/10/05 10:42:31;;;;;;;4.57;2.65;;;23.30;96.70;;;;;;5065876;28;20571;-74
2022/10/05 10:45:13;;;;;;;4.07;2.30;;;23.60;96.70;;;;;;4999051;28;20132;-73
2022/10/05 10:48:01;;;;;;;5.20;2.50;;;23.70;96.70;;;;;;5020931;28;20060;-74
2022/10/05 10:51:10;;;;;;;4.18;2.40;;;23.80;96.70;;;;;;5021089;28;20603;-74
2022/10/05 10:54:11;;;;;;;4.78;2.50;;;23.90;96.70;;;;;;5007293;28;20120;-73
2022/10/05 10:56:55;;;;;;;4.88;2.72;;;24.00;96.70;;;;;;5017844;28;20498;-74
2022/10/05 11:00:04;;;;;;;4.03;2.97;;;24.00;96.70;;;;;;5019892;28;20047;-73
2022/10/05 11:03:13;;;;;;;5.45;3.05;;;24.10;96.70;;;;;;4982590;28;20517;-74
2022/10/05 11:06:18;;;;;;;5.28;2.40;;;24.20;96.70;;;;;;5009656;28;20164;-73
2022/10/05 11:08:59;;;;;;;5.25;2.78;;;24.30;96.70;;;;;;5002185;28;20187;-73
2022/10/05 11:11:42;;;;;;;8.60;2.80;;;24.50;96.70;;;;;;5024826;28;20049;-74
2022/10/05 11:14:55;;;;;;;5.53;2.65;;;24.60;96.70;;;;;;5022021;28;20050;-74
2022/10/05 11:17:35;;;;;;;6.05;3.08;;;24.70;96.70;;;;;;5050332;28;20055;-73
2022/10/05 11:20:22;;;;;;;5.20;2.15;;;24.90;96.70;;;;;;5085242;28;20105;-74
2022/10/05 11:22:56;;;;;;;5.05;2.10;;;25.00;96.70;;;;;;5083373;28;20048;-73
2022/10/05 11:25:46;;;;;;;4.60;2.30;;;25.10;96.70;;;;;;5083805;28;20052;-73
2022/10/05 11:28:41;;;;;;;5.72;2.20;;;25.20;96.70;;;;;;5082546;28;20044;-74
2022/10/05 11:31:45;;;;;;;5.85;1.98;;;25.20;96.70;;;;;;5083221;28;20103;-73
2022/10/05 11:35:02;;;;;;;4.05;1.70;;;25.40;96.70;;;;;;5081549;28;20067;-74
2022/10/05 11:38:02;;;;;;;2.38;1.30;;;25.50;96.70;;;;;;5080461;28;20533;-74
2022/10/05 11:41:01;;;;;;;4.90;1.63;;;25.50;96.70;;;;;;5084993;28;20044;-73
2022/10/05 11:44:07;;;;;;;4.00;1.60;;;25.60;96.70;;;;;;5086617;28;20447;-73
2022/10/05 11:46:41;;;;;;;2.05;1.65;;;25.60;96.70;;;;;;5081388;28;20063;-74
2022/10/05 11:49:38;;;;;;;3.17;1.52;;;25.80;96.70;;;;;;5086089;28;20043;-74
2022/10/05 11:52:14;;;;;;;4.75;1.90;;;25.90;96.70;;;;;;5067092;28;20055;-74
2022/10/05 11:55:12;;;;;;;3.20;1.98;;;26.00;96.70;;;;;;5085994;28;20101;-74
2022/10/05 11:57:48;;;;;;;2.97;1.30;;;26.20;96.70;;;;;;5084673;28;20058;-73
2022/10/05 12:00:18;;;;;;;7.38;2.05;;;26.20;96.70;;;;;;5068247;28;20085;-75
2022/10/05 12:03:26;;;;;;;4.57;1.85;;;26.20;96.70;;;;;;5083681;28;20040;-76
2022/10/05 12:06:16;;;;;;;5.78;1.52;;;26.30;96.70;;;;;;5074393;28;20052;-77
2022/10/05 12:08:55;;;;;;;2.65;1.48;;;26.40;96.70;;;;;;5081481;28;20040;-77
2022/10/05 12:11:44;;;;;;;4.25;1.50;;;26.50;96.70;;;;;;5086541;28;20054;-73
2022/10/05 12:14:24;;;;;;;3.97;1.33;;;26.50;96.70;;;;;;5078014;28;20041;-72
2022/10/05 12:16:58;;;;;;;2.53;0.90;;;26.50;96.70;;;;;;5084592;28;20052;-72
2022/10/05 12:19:33;;;;;;;1.65;0.88;;;26.50;96.70;;;;;;5085026;28;20048;-71
2022/10/05 12:22:09;;;;;;;4.22;1.40;;;26.60;96.70;;;;;;5086379;28;20041;-72
2022/10/05 12:25:00;;;;;;;2.90;1.45;;;26.80;96.70;;;;;;5085649;28;20135;-73
2022/10/05 12:27:33;;;;;;;2.60;1.27;;;26.80;96.70;;;;;;5082840;28;20511;-74
2022/10/05 12:30:10;;;;;;;2.75;1.60;;;26.70;96.70;;;;;;5084985;28;20040;-74
2022/10/05 12:32:43;;;;;;;2.60;1.25;;;26.80;96.70;;;;;;5085056;28;20082;-73
2022/10/05 12:35:17;;;;;;;3.30;1.00;;;26.80;96.70;;;;;;5084385;28;20126;-73
2022/10/05 12:38:16;;;;;;;2.38;1.00;;;26.90;96.70;;;;;;5085239;28;20409;-73
2022/10/05 12:40:50;;;;;;;1.35;0.60;;;26.90;96.70;;;;;;5082638;28;20086;-73
2022/10/05 12:43:31;;;;;;;2.10;0.80;;;27.00;96.70;;;;;;5083793;28;20577;-74
2022/10/05 12:46:08;;;;;;;1.92;0.93;;;27.10;96.70;;;;;;5097483;28;20040;-74
2022/10/05 12:48:51;;;;;;;3.05;1.17;;;27.10;96.70;;;;;;5065284;28;20733;-73
2022/10/05 12:51:28;;;;;;;4.03;1.17;;;27.10;96.70;;;;;;5082223;28;20063;-73
2022/10/05 12:54:02;;;;;;;3.20;1.05;;;27.10;96.70;;;;;;5078068;28;20044;-73
2022/10/05 12:56:41;;;;;;;2.05;0.80;;;27.00;96.70;;;;;;5085932;28;20536;-73
2022/10/05 12:59:25;;;;;;;3.40;1.02;;;27.20;96.70;;;;;;5084193;28;20085;-73
2022/10/05 13:01:58;;;;;;;4.53;1.83;;;27.40;96.70;;;;;;5092172;28;20043;-73
2022/10/05 13:04:40;;;;;;;1.85;0.98;;;27.50;96.70;;;;;;5077562;28;20548;-73
2022/10/05 13:07:41;;;;;;;2.70;1.00;;;27.50;96.70;;;;;;5082885;28;20036;-73
2022/10/05 13:10:23;;;;;;;3.60;1.10;;;27.50;96.70;;;;;;5079517;28;20117;-73
2022/10/05 13:13:04;;;;;;;3.25;0.90;;;27.30;96.70;;;;;;5081604;28;20799;-73
2022/10/05 13:15:47;;;;;;;2.67;1.00;;;27.30;96.70;;;;;;5082459;28;20384;-73
2022/10/05 13:18:28;;;;;;;2.80;1.30;;;27.40;96.70;;;;;;5080682;28;20505;-73
2022/10/05 13:21:03;;;;;;;1.83;0.90;;;27.50;96.70;;;;;;5085179;28;20548;-73
2022/10/05 13:23:42;;;;;;;2.15;0.90;;;27.50;96.70;;;;;;5061310;28;20082;-73
2022/10/05 13:26:15;;;;;;;4.18;1.23;;;27.60;96.70;;;;;;5084219;28;20070;-72
2022/10/05 13:28:50;;;;;;;5.03;1.27;;;27.50;96.70;;;;;;5083014;28;20054;-73
2022/10/05 13:31:25;;;;;;;2.50;0.98;;;27.40;96.70;;;;;;5085796;28;20047;-73
2022/10/05 13:34:17;;;;;;;4.68;1.20;;;27.30;96.70;;;;;;5083582;28;20047;-72
2022/10/05 13:36:57;;;;;;;3.40;1.23;;;27.30;96.70;;;;;;5077567;28;20044;-73
2022/10/05 13:39:37;;;;;;;3.80;1.38;;;27.20;96.70;;;;;;5084224;28;20045;-72
2022/10/05 13:42:11;;;;;;;5.90;1.55;;;27.20;96.70;;;;;;5080328;28;20040;-73
2022/10/05 13:44:45;;;;;;;3.50;1.23;;;27.20;96.70;;;;;;5084774;28;20052;-73
2022/10/05 13:47:24;;;;;;;3.30;1.30;;;27.30;96.70;;;;;;5078952;28;20048;-73
2022/10/05 13:49:56;;;;;;;2.13;1.05;;;27.30;96.70;;;;;;5087912;28;20066;-73
2022/10/05 13:52:31;;;;;;;;;;;27.20;96.70;;;;;;5066018;28;20071;-73
2022/10/05 13:55:05;;;;;;;2.90;1.10;;;27.30;96.70;;;;;;5081973;28;19971;-73
2022/10/05 13:57:52;;;;;;;2.60;1.13;;;27.30;96.70;;;;;;5082472;28;20581;-73
2022/10/05 14:00:22;;;;;;;3.15;1.20;;;27.30;96.70;;;;;;5078289;28;20052;-73
2022/10/05 14:02:56;;;;;;;3.30;1.35;;;27.30;96.70;;;;;;5082214;28;20570;-73
2022/10/05 14:05:26;;;;;;;3.95;1.80;;;27.40;96.70;;;;;;5084079;28;20074;-73
2022/10/05 14:07:56;;;;;;;4.63;1.40;;;27.60;96.70;;;;;;5081044;28;20482;-73
2022/10/05 14:10:34;;;;;;;7.75;1.92;;;27.70;96.70;;;;;;5081930;28;20043;-73